Horizon City, Texas
Current Conditions -  °F | °C
As of 6:45 AM on Monday 26 Jan 2015 (Local Time) from MMCS Reporting Station
Broken Clouds Broken Clouds  
Wind Chill: 33°   Ceiling: 25000
Heat Index: 39°   Visibility: 10mi
Dew Point: 28°   Wind: 9mph
Humidity: 65%   Direction: 330°NNW
Pressure: 30.24"   Gusts: NA
Location:  31.6697°N, 106.14°W
Report Text: MMCS 261345Z 33008KT 10SM BKN250 04/M02 A3024 RMK 8/002
Loading
Personal Weather Stations






























Interactive Weather Map New forecast layout! Learn more

10-Day Weather Forecast

Advertisements
Track Severe Weather on mobile